Time;durP1;ratioP1;P1;durP2;ratioP2;P2;SDS_P1;SDS_P2;PMS_P1;PMS_P2;Temp;Humidity;BMP_temperature;BMP_pressure;BME280_temperature;BME280_humidity;BME280_pressure;Samples;Min_cycle;Max_cycle;Signal;HPM_P1;HPM_P2
2022/06/08 00:01:48;;;;;;;1.75;0.50;;;15.00;99.90;;;;;;5031723;28;20025;-76
2022/06/08 00:04:15;;;;;;;3.15;0.68;;;15.10;99.90;;;;;;5030603;28;20036;-76
2022/06/08 00:06:40;;;;;;;1.75;0.65;;;15.30;99.90;;;;;;5027747;28;20369;-76
2022/06/08 00:09:06;;;;;;;3.15;0.30;;;15.10;99.90;;;;;;5029051;28;20051;-76
2022/06/08 00:11:32;;;;;;;0.98;0.28;;;15.00;99.90;;;;;;5028010;28;20415;-76
2022/06/08 00:13:58;;;;;;;1.45;0.35;;;15.00;99.90;;;;;;5030244;28;20017;-76
2022/06/08 00:16:24;;;;;;;1.25;0.45;;;15.10;99.90;;;;;;5032447;28;20083;-76
2022/06/08 00:18:50;;;;;;;0.82;0.40;;;15.00;99.90;;;;;;5026303;28;20124;-76
2022/06/08 00:21:16;;;;;;;2.25;0.60;;;15.20;99.90;;;;;;5029759;28;20571;-76
2022/06/08 00:23:43;;;;;;;0.98;0.47;;;15.40;99.90;;;;;;5031060;28;20033;-76
2022/06/08 00:26:08;;;;;;;1.10;0.40;;;15.50;99.90;;;;;;5031895;28;20502;-76
2022/06/08 00:28:34;;;;;;;2.35;0.70;;;15.70;99.90;;;;;;5027653;28;20029;-76
2022/06/08 00:31:01;;;;;;;3.53;1.00;;;15.70;99.90;;;;;;5032261;28;20154;-76
2022/06/08 00:33:27;;;;;;;14.15;0.95;;;15.70;99.90;;;;;;5030393;28;20403;-76
2022/06/08 00:35:53;;;;;;;2.20;0.50;;;15.70;99.90;;;;;;5027387;28;20054;-76
2022/06/08 00:38:18;;;;;;;1.02;0.45;;;15.70;99.90;;;;;;5028475;28;20516;-76
2022/06/08 00:40:47;;;;;;;2.25;0.73;;;15.70;99.90;;;;;;5030905;28;20037;-76
2022/06/08 00:43:13;;;;;;;1.33;0.45;;;15.70;99.90;;;;;;5028484;28;20102;-76
2022/06/08 00:45:39;;;;;;;0.65;0.40;;;15.70;99.90;;;;;;5025512;28;20044;-77
2022/06/08 00:48:06;;;;;;;1.75;0.40;;;15.70;99.90;;;;;;5028714;28;20030;-76
2022/06/08 00:50:49;;;;;;;3.42;0.50;;;15.80;99.90;;;;;;5030564;28;20109;-76
2022/06/08 00:53:19;;;;;;;2.38;0.50;;;15.80;99.90;;;;;;5031653;28;20508;-76
2022/06/08 00:55:45;;;;;;;1.45;0.52;;;15.80;99.90;;;;;;5030541;28;20060;-76
2022/06/08 00:58:19;;;;;;;1.20;0.40;;;15.70;99.90;;;;;;5025879;28;20040;-76
2022/06/08 01:00:45;;;;;;;2.55;0.73;;;15.60;99.90;;;;;;5025019;28;20045;-76
2022/06/08 01:03:14;;;;;;;1.70;0.47;;;15.30;99.90;;;;;;5028050;28;20032;-76
2022/06/08 01:06:03;;;;;;;0.82;0.30;;;15.30;99.90;;;;;;5028648;28;20067;-76
2022/06/08 01:08:40;;;;;;;0.47;0.28;;;15.40;99.90;;;;;;5028589;28;20037;-76
2022/06/08 01:11:13;;;;;;;0.82;0.52;;;15.50;99.90;;;;;;5030165;28;20030;-76
2022/06/08 01:13:39;;;;;;;1.92;0.63;;;15.50;99.90;;;;;;5025234;28;20030;-76
2022/06/08 01:16:08;;;;;;;4.13;0.50;;;15.60;99.90;;;;;;5030543;28;20044;-76
2022/06/08 01:18:34;;;;;;;1.08;0.40;;;15.60;99.90;;;;;;5026742;28;20033;-76
2022/06/08 01:21:18;;;;;;;1.20;0.50;;;15.50;99.90;;;;;;5032143;28;20107;-76
2022/06/08 01:23:45;;;;;;;3.58;0.50;;;15.50;99.90;;;;;;5024475;28;20408;-77
2022/06/08 01:26:36;;;;;;;1.33;0.30;;;15.50;99.90;;;;;;5026893;28;20041;-76
2022/06/08 01:29:18;;;;;;;1.08;0.40;;;15.50;99.90;;;;;;5030438;28;20030;-76
2022/06/08 01:31:52;;;;;;;2.25;0.25;;;15.50;99.90;;;;;;5031264;28;20076;-76
2022/06/08 01:34:25;;;;;;;1.17;0.50;;;15.50;99.90;;;;;;5028893;28;20029;-76
2022/06/08 01:36:56;;;;;;;1.95;0.52;;;15.50;99.90;;;;;;5031937;28;20388;-76
2022/06/08 01:39:38;;;;;;;0.95;0.50;;;15.50;99.90;;;;;;5035417;28;20025;-76
2022/06/08 01:42:19;;;;;;;2.42;0.57;;;15.50;99.90;;;;;;5038491;28;20072;-76
2022/06/08 01:47:58;;;;;;;1.77;0.60;;;15.40;99.90;;;;;;5033572;28;20451;-76
2022/06/08 01:51:00;;;;;;;4.20;0.50;;;15.10;99.90;;;;;;5035940;28;20035;-76
2022/06/08 01:53:30;;;;;;;1.88;0.50;;;15.10;99.90;;;;;;5032317;28;20866;-76
2022/06/08 01:56:12;;;;;;;3.92;0.60;;;15.10;99.90;;;;;;5031795;28;20014;-76
2022/06/08 01:59:03;;;;;;;1.45;0.50;;;15.10;99.90;;;;;;5029923;28;20041;-76
2022/06/08 02:01:42;;;;;;;3.83;0.40;;;15.10;99.90;;;;;;5037965;28;20487;-76
2022/06/08 02:04:08;;;;;;;3.58;0.75;;;15.10;99.90;;;;;;5030871;28;20395;-76
2022/06/08 02:07:00;;;;;;;1.67;0.40;;;14.80;99.90;;;;;;5036298;28;20045;-77
2022/06/08 02:09:50;;;;;;;1.23;0.60;;;15.00;99.90;;;;;;5023364;28;20065;-76
2022/06/08 02:12:15;;;;;;;1.20;0.50;;;15.00;99.90;;;;;;5038390;28;20040;-76
2022/06/08 02:14:56;;;;;;;2.80;0.50;;;14.70;99.90;;;;;;5031053;28;20603;-76
2022/06/08 02:17:26;;;;;;;1.92;0.52;;;14.70;99.90;;;;;;5038118;28;20033;-76
2022/06/08 02:20:02;;;;;;;1.25;0.43;;;14.90;99.90;;;;;;5029245;28;20036;-76
2022/06/08 02:22:35;;;;;;;2.28;0.47;;;14.90;99.90;;;;;;5035983;28;20033;-76
2022/06/08 02:25:18;;;;;;;0.40;0.20;;;14.70;99.90;;;;;;5031680;28;20072;-76
2022/06/08 02:28:25;;;;;;;2.10;0.60;;;14.60;99.90;;;;;;5032453;28;20030;-76
2022/06/08 02:31:00;;;;;;;3.80;0.45;;;14.70;99.90;;;;;;4988137;28;20050;-76
2022/06/08 02:36:49;;;;;;;1.67;0.50;;;14.60;99.90;;;;;;5019172;28;20040;-76
2022/06/08 02:39:18;;;;;;;6.53;0.50;;;14.80;99.90;;;;;;5033614;28;20034;-76
2022/06/08 02:41:47;;;;;;;1.33;0.30;;;14.90;99.90;;;;;;5037488;28;20554;-76
2022/06/08 02:44:19;;;;;;;2.40;0.40;;;14.90;99.90;;;;;;5033881;28;20029;-76
2022/06/08 02:47:04;;;;;;;5.32;0.50;;;15.00;99.90;;;;;;5032098;28;20041;-76
2022/06/08 02:49:33;;;;;;;2.03;0.68;;;14.80;99.90;;;;;;5030085;28;20123;-77
2022/06/08 02:52:03;;;;;;;1.33;0.28;;;14.80;99.90;;;;;;5034611;28;20036;-76
2022/06/08 02:54:30;;;;;;;2.55;0.73;;;15.00;99.90;;;;;;5033096;28;20041;-76
2022/06/08 02:57:08;;;;;;;2.15;0.50;;;14.90;99.90;;;;;;5032865;28;20542;-76
2022/06/08 02:59:55;;;;;;;2.67;0.60;;;14.80;99.90;;;;;;5026094;28;20399;-77
2022/06/08 03:02:32;;;;;;;0.55;0.30;;;14.80;99.90;;;;;;5032635;28;20041;-75
2022/06/08 03:05:04;;;;;;;0.82;0.25;;;14.80;99.90;;;;;;5020091;28;20037;-75
2022/06/08 03:07:35;;;;;;;1.55;0.50;;;14.80;99.90;;;;;;5027271;28;20029;-75
2022/06/08 03:10:07;;;;;;;1.63;0.88;;;14.80;99.90;;;;;;5026621;28;20471;-75
2022/06/08 03:12:40;;;;;;;3.63;0.40;;;14.90;99.90;;;;;;5029305;28;20045;-75
2022/06/08 03:15:08;;;;;;;1.95;0.50;;;14.90;99.90;;;;;;5024709;28;20022;-75
2022/06/08 03:17:36;;;;;;;1.42;0.43;;;14.80;99.90;;;;;;5024109;28;20037;-76
2022/06/08 03:20:04;;;;;;;1.90;0.38;;;14.80;99.90;;;;;;5024683;28;20064;-75
2022/06/08 03:22:31;;;;;;;5.93;1.10;;;14.80;99.90;;;;;;5027122;28;20034;-75
2022/06/08 03:24:57;;;;;;;2.85;0.50;;;14.90;99.90;;;;;;5024575;28;20119;-75
2022/06/08 03:27:23;;;;;;;2.67;1.00;;;14.90;99.90;;;;;;5024226;28;20068;-75
2022/06/08 03:29:49;;;;;;;3.78;1.00;;;14.80;99.90;;;;;;5026513;28;20677;-75
2022/06/08 03:32:15;;;;;;;2.28;0.30;;;14.80;99.90;;;;;;5029581;28;20116;-75
2022/06/08 03:34:40;;;;;;;2.25;0.60;;;14.80;99.90;;;;;;5019128;28;20049;-75
2022/06/08 03:37:06;;;;;;;1.33;0.40;;;14.90;99.90;;;;;;5028941;28;20049;-75
2022/06/08 03:39:32;;;;;;;3.10;0.63;;;14.90;99.90;;;;;;5027491;28;20030;-75
2022/06/08 03:41:58;;;;;;;2.92;0.60;;;14.90;99.90;;;;;;5024228;28;20090;-75
2022/06/08 03:44:23;;;;;;;0.73;0.50;;;15.00;99.90;;;;;;5026178;28;20025;-75
2022/06/08 03:46:54;;;;;;;1.70;0.30;;;14.90;99.90;;;;;;5023673;28;20034;-75
2022/06/08 03:49:22;;;;;;;1.92;0.40;;;15.00;99.90;;;;;;5026043;28;20025;-75
2022/06/08 03:51:50;;;;;;;3.70;0.80;;;14.80;99.90;;;;;;5019401;28;20163;-75
2022/06/08 03:54:19;;;;;;;0.63;0.30;;;14.80;99.90;;;;;;5023672;28;20025;-75
2022/06/08 03:56:50;;;;;;;3.25;0.43;;;14.70;99.90;;;;;;5020211;28;20033;-75
2022/06/08 03:59:16;;;;;;;1.05;0.45;;;14.70;99.90;;;;;;5023988;28;20036;-75
2022/06/08 04:01:43;;;;;;;1.75;0.30;;;14.80;99.90;;;;;;5021619;28;20038;-75
2022/06/08 04:04:08;;;;;;;1.38;0.50;;;14.70;99.90;;;;;;5025167;28;20030;-75
2022/06/08 04:06:34;;;;;;;0.10;0.10;;;14.70;99.90;;;;;;5019131;28;20042;-75
2022/06/08 04:09:00;;;;;;;2.72;0.40;;;14.60;99.90;;;;;;5023460;28;20459;-75
2022/06/08 04:11:26;;;;;;;0.60;0.28;;;14.70;99.90;;;;;;5023121;28;20037;-75
2022/06/08 04:13:52;;;;;;;1.90;0.30;;;14.70;99.90;;;;;;5024900;28;20171;-75
2022/06/08 04:16:17;;;;;;;2.03;0.40;;;14.70;99.90;;;;;;5023913;28;20114;-75
2022/06/08 04:18:43;;;;;;;0.98;0.32;;;14.70;99.90;;;;;;5021359;28;20484;-75
2022/06/08 04:21:10;;;;;;;1.42;0.35;;;14.60;99.90;;;;;;5025952;28;20044;-75
2022/06/08 04:23:38;;;;;;;1.05;0.50;;;14.60;99.90;;;;;;5020661;28;20560;-75
2022/06/08 04:26:05;;;;;;;0.70;0.40;;;14.70;99.90;;;;;;5015726;28;20038;-75
2022/06/08 04:28:31;;;;;;;4.10;1.05;;;14.80;99.90;;;;;;5022142;28;20038;-75
2022/06/08 04:30:57;;;;;;;1.63;0.60;;;14.90;99.90;;;;;;5016649;28;20056;-75
2022/06/08 04:33:23;;;;;;;1.35;0.40;;;14.90;99.90;;;;;;5023691;28;20626;-75
2022/06/08 04:35:49;;;;;;;1.77;0.40;;;14.80;99.90;;;;;;5023216;28;20514;-75
2022/06/08 04:38:16;;;;;;;1.85;0.20;;;14.80;99.90;;;;;;5021147;28;20068;-75
2022/06/08 04:40:43;;;;;;;1.15;0.30;;;14.80;99.90;;;;;;5035072;28;20048;-75
2022/06/08 04:43:09;;;;;;;2.97;0.52;;;14.80;99.90;;;;;;5016664;28;20034;-76
2022/06/08 04:45:37;;;;;;;0.82;0.38;;;14.80;99.90;;;;;;5016918;28;20056;-75
2022/06/08 04:48:04;;;;;;;0.95;0.30;;;14.60;99.90;;;;;;5015516;28;20867;-75
2022/06/08 04:50:30;;;;;;;2.90;0.50;;;14.70;99.90;;;;;;5021081;28;20037;-75
2022/06/08 04:52:55;;;;;;;0.93;0.40;;;14.80;99.90;;;;;;5017990;28;20907;-75
2022/06/08 04:55:22;;;;;;;0.98;0.50;;;14.80;99.90;;;;;;5021472;28;20025;-75
2022/06/08 04:57:49;;;;;;;0.93;0.25;;;14.90;99.90;;;;;;5020187;28;20030;-75
2022/06/08 05:00:17;;;;;;;2.97;0.40;;;14.60;99.90;;;;;;5011159;28;20033;-75
2022/06/08 05:02:44;;;;;;;1.58;0.50;;;14.50;99.90;;;;;;5018045;28;20047;-75
2022/06/08 05:05:30;;;;;;;3.72;0.50;;;14.60;99.90;;;;;;5016998;28;20030;-75
2022/06/08 05:07:57;;;;;;;1.85;0.50;;;14.80;99.90;;;;;;5011956;28;20036;-75
2022/06/08 05:10:25;;;;;;;0.98;0.30;;;14.80;99.90;;;;;;5012537;28;20041;-75
2022/06/08 05:12:50;;;;;;;3.00;0.38;;;14.80;99.90;;;;;;5013872;28;20033;-75
2022/06/08 05:15:20;;;;;;;0.55;0.25;;;14.80;99.90;;;;;;5012621;28;20463;-75
2022/06/08 05:17:46;;;;;;;0.70;0.22;;;14.90;99.90;;;;;;5012719;28;20038;-75
2022/06/08 05:20:13;;;;;;;0.98;0.40;;;15.00;99.90;;;;;;5012708;28;20124;-75
2022/06/08 05:22:39;;;;;;;0.90;0.30;;;15.00;99.90;;;;;;5013758;28;20764;-75
2022/06/08 05:25:07;;;;;;;5.57;1.48;;;14.90;99.90;;;;;;5010287;28;20117;-75
2022/06/08 05:27:33;;;;;;;1.38;0.47;;;14.90;99.90;;;;;;5008104;28;20479;-75
2022/06/08 05:29:58;;;;;;;2.30;0.60;;;14.90;99.90;;;;;;5016119;28;20069;-75
2022/06/08 05:32:24;;;;;;;2.97;0.40;;;14.90;99.90;;;;;;5009308;28;20035;-75
2022/06/08 05:34:49;;;;;;;2.92;0.52;;;15.00;99.90;;;;;;5013109;28;20116;-75
2022/06/08 05:37:15;;;;;;;3.15;0.60;;;15.00;99.90;;;;;;5015354;28;20036;-75
2022/06/08 05:39:41;;;;;;;1.48;0.40;;;15.00;99.90;;;;;;5012974;28;20084;-75
2022/06/08 05:42:07;;;;;;;4.00;0.47;;;15.00;99.90;;;;;;5011171;28;20073;-75
2022/06/08 05:44:34;;;;;;;1.10;0.43;;;15.00;99.90;;;;;;5008907;28;20025;-75
2022/06/08 05:46:59;;;;;;;1.05;0.40;;;15.00;99.90;;;;;;5011064;28;20032;-75
2022/06/08 05:49:25;;;;;;;2.00;0.52;;;15.00;99.90;;;;;;5009593;28;20033;-75
2022/06/08 05:51:52;;;;;;;3.00;0.60;;;15.10;99.90;;;;;;5007410;28;20021;-75
2022/06/08 05:54:17;;;;;;;1.85;0.60;;;15.10;99.90;;;;;;5015102;28;20026;-75
2022/06/08 05:56:43;;;;;;;1.85;0.47;;;15.10;99.90;;;;;;5013364;28;20651;-75
2022/06/08 05:59:09;;;;;;;1.58;0.40;;;15.20;99.90;;;;;;5015521;28;20040;-75
2022/06/08 06:01:35;;;;;;;1.13;0.30;;;15.30;99.90;;;;;;5008034;28;20060;-75
2022/06/08 06:04:05;;;;;;;1.25;0.47;;;15.40;99.90;;;;;;5011298;28;20051;-75
2022/06/08 06:06:31;;;;;;;1.65;0.60;;;15.40;99.90;;;;;;5014580;28;20579;-75
2022/06/08 06:08:58;;;;;;;0.82;0.52;;;15.50;99.90;;;;;;5019467;28;20025;-77
2022/06/08 06:11:24;;;;;;;2.72;0.43;;;15.50;99.90;;;;;;5015826;28;20037;-75
2022/06/08 06:13:49;;;;;;;1.95;0.50;;;15.70;99.90;;;;;;5014949;28;20030;-76
2022/06/08 06:16:15;;;;;;;3.28;0.50;;;15.70;99.90;;;;;;5013526;28;20087;-75
2022/06/08 06:18:41;;;;;;;1.23;0.50;;;15.70;99.90;;;;;;5022570;28;20083;-75
2022/06/08 06:21:07;;;;;;;0.68;0.30;;;15.70;99.90;;;;;;5019989;28;20661;-75
2022/06/08 06:23:33;;;;;;;3.75;0.55;;;15.70;99.90;;;;;;5020352;28;20017;-75
2022/06/08 06:25:59;;;;;;;0.68;0.32;;;15.70;99.90;;;;;;5019633;28;20064;-75
2022/06/08 06:28:24;;;;;;;3.20;0.75;;;15.80;99.90;;;;;;5026754;28;20472;-75
2022/06/08 06:30:50;;;;;;;2.00;0.40;;;15.80;99.90;;;;;;5023916;28;20037;-75
2022/06/08 06:33:16;;;;;;;1.75;0.40;;;15.80;99.90;;;;;;5016938;28;20128;-76
2022/06/08 06:35:42;;;;;;;4.10;1.10;;;15.80;99.90;;;;;;5016763;28;20097;-75
2022/06/08 06:38:09;;;;;;;2.42;0.40;;;15.90;99.90;;;;;;5026034;28;20407;-76
2022/06/08 06:40:36;;;;;;;1.60;0.50;;;16.00;99.90;;;;;;5026182;28;20037;-74
2022/06/08 06:43:02;;;;;;;2.80;0.73;;;16.10;99.90;;;;;;5026375;28;20515;-75
2022/06/08 06:45:29;;;;;;;4.97;0.55;;;16.00;99.90;;;;;;5026483;28;20089;-76
2022/06/08 06:47:54;;;;;;;2.75;0.70;;;16.10;99.90;;;;;;5026576;28;20036;-75
2022/06/08 06:50:20;;;;;;;4.70;0.55;;;16.20;99.90;;;;;;5018634;28;20029;-75
2022/06/08 06:52:48;;;;;;;1.65;0.90;;;16.40;99.90;;;;;;5025825;28;20029;-75
2022/06/08 06:55:29;;;;;;;2.47;0.73;;;16.40;99.90;;;;;;5026526;28;20117;-75
2022/06/08 06:57:55;;;;;;;2.38;0.75;;;16.60;99.90;;;;;;5023807;28;20103;-75
2022/06/08 07:00:21;;;;;;;2.88;0.93;;;16.70;99.90;;;;;;5025813;28;20476;-75
2022/06/08 07:02:47;;;;;;;1.90;0.40;;;17.00;99.90;;;;;;5023880;28;20037;-75
2022/06/08 07:05:22;;;;;;;0.73;0.47;;;17.30;99.90;;;;;;5022729;28;20052;-75
2022/06/08 07:07:48;;;;;;;0.85;0.50;;;17.40;99.90;;;;;;5018921;28;20390;-76
2022/06/08 07:10:14;;;;;;;2.80;0.60;;;17.80;99.90;;;;;;5027157;28;20030;-76
2022/06/08 07:12:40;;;;;;;0.57;0.20;;;18.00;99.90;;;;;;5026500;28;20052;-76
2022/06/08 07:15:07;;;;;;;3.05;0.50;;;18.10;98.80;;;;;;5024831;28;20480;-76
2022/06/08 07:17:32;;;;;;;1.52;0.50;;;18.40;98.30;;;;;;5026306;28;20108;-76
2022/06/08 07:19:58;;;;;;;2.45;0.43;;;18.50;97.90;;;;;;5025600;28;20105;-76
2022/06/08 07:22:24;;;;;;;1.00;0.32;;;18.80;97.60;;;;;;5024161;28;20033;-76
2022/06/08 07:24:49;;;;;;;1.15;0.63;;;19.10;97.60;;;;;;5025711;28;20523;-76
2022/06/08 07:27:16;;;;;;;0.38;0.20;;;19.50;97.80;;;;;;5026041;28;20112;-76
2022/06/08 07:29:42;;;;;;;2.13;0.47;;;20.10;95.90;;;;;;5025647;28;20045;-76
2022/06/08 07:32:08;;;;;;;2.55;0.57;;;21.20;94.90;;;;;;5023706;28;20163;-76
2022/06/08 07:34:34;;;;;;;0.47;0.30;;;22.10;93.70;;;;;;5025432;28;20078;-76
2022/06/08 07:37:00;;;;;;;0.35;0.22;;;22.80;92.00;;;;;;5015959;28;20086;-76
2022/06/08 07:39:26;;;;;;;1.13;0.30;;;23.40;91.00;;;;;;5025481;28;20187;-76
2022/06/08 07:41:52;;;;;;;1.73;0.43;;;23.50;91.20;;;;;;5026089;28;20029;-76
2022/06/08 07:44:19;;;;;;;0.75;0.20;;;23.00;90.80;;;;;;5026171;28;20035;-76
2022/06/08 07:46:46;;;;;;;5.65;0.88;;;23.30;90.40;;;;;;5024887;28;20128;-76
2022/06/08 07:51:59;;;;;;;0.90;0.32;;;22.80;90.80;;;;;;5024855;28;20045;-76
2022/06/08 07:54:27;;;;;;;2.97;0.50;;;22.40;91.30;;;;;;5026132;28;20029;-77
2022/06/08 07:56:54;;;;;;;1.73;0.60;;;22.10;91.80;;;;;;5023834;28;20061;-76
2022/06/08 07:59:22;;;;;;;1.67;0.70;;;21.90;91.10;;;;;;5026044;28;20087;-76
2022/06/08 08:01:48;;;;;;;0.80;0.57;;;21.70;91.70;;;;;;5024720;28;20827;-76
2022/06/08 08:04:14;;;;;;;0.70;0.50;;;22.00;92.10;;;;;;5025523;28;20108;-77
2022/06/08 08:06:40;;;;;;;4.45;1.05;;;22.10;91.80;;;;;;5019078;28;20128;-76
2022/06/08 08:09:09;;;;;;;0.65;0.30;;;21.80;92.40;;;;;;5025877;28;20033;-77
2022/06/08 08:11:35;;;;;;;2.08;0.30;;;21.70;92.30;;;;;;5025573;28;20136;-77
2022/06/08 08:14:01;;;;;;;0.50;0.30;;;22.10;92.10;;;;;;5025621;28;20150;-77
2022/06/08 08:16:26;;;;;;;6.32;0.73;;;21.80;91.90;;;;;;5025762;28;20057;-76
2022/06/08 08:18:52;;;;;;;2.05;0.60;;;21.30;91.40;;;;;;5025778;28;20045;-76
2022/06/08 08:21:18;;;;;;;0.75;0.40;;;21.40;92.70;;;;;;5022880;28;20033;-76
2022/06/08 08:23:43;;;;;;;1.02;0.43;;;21.60;92.70;;;;;;5021844;28;20128;-76
2022/06/08 08:26:09;;;;;;;1.15;0.40;;;21.40;92.70;;;;;;5025794;28;20052;-77
2022/06/08 08:28:34;;;;;;;1.00;0.52;;;21.10;92.40;;;;;;5022592;28;20029;-77
2022/06/08 08:31:00;;;;;;;5.30;1.20;;;21.30;92.60;;;;;;5023711;28;20080;-77
2022/06/08 08:33:26;;;;;;;0.85;0.40;;;21.70;93.10;;;;;;5025070;28;20044;-76
2022/06/08 08:35:52;;;;;;;1.00;0.40;;;21.60;91.90;;;;;;5021252;28;20033;-77
2022/06/08 08:38:19;;;;;;;7.10;1.73;;;21.80;92.20;;;;;;5023819;28;20034;-77
2022/06/08 08:40:59;;;;;;;3.20;0.70;;;22.10;92.60;;;;;;5023080;28;20434;-76
2022/06/08 08:43:29;;;;;;;1.38;0.75;;;22.30;92.10;;;;;;5024683;28;20037;-77
2022/06/08 08:46:18;;;;;;;2.72;0.75;;;22.10;91.40;;;;;;5022174;28;20047;-77
2022/06/08 08:48:54;;;;;;;4.10;0.95;;;22.10;92.50;;;;;;5024739;28;20112;-77
2022/06/08 08:51:42;;;;;;;3.63;0.82;;;22.10;92.20;;;;;;5024939;28;20044;-76
2022/06/08 08:54:29;;;;;;;2.05;0.63;;;22.20;91.90;;;;;;5024942;28;20029;-77
2022/06/08 08:57:11;;;;;;;2.53;0.85;;;22.10;92.60;;;;;;5022027;28;20030;-76
2022/06/08 08:59:38;;;;;;;3.30;0.50;;;22.40;92.40;;;;;;5022357;28;20032;-76
2022/06/08 09:02:13;;;;;;;7.68;0.70;;;22.60;92.40;;;;;;5024714;28;20112;-77
2022/06/08 09:04:47;;;;;;;3.15;0.60;;;22.50;91.80;;;;;;5024580;28;20073;-76
2022/06/08 09:07:19;;;;;;;2.35;0.60;;;22.50;92.70;;;;;;5024839;28;20064;-77
2022/06/08 09:09:45;;;;;;;3.17;0.75;;;22.60;92.40;;;;;;5019803;28;20463;-76
2022/06/08 09:12:13;;;;;;;2.28;0.60;;;22.70;93.00;;;;;;5024098;28;20108;-76
2022/06/08 09:15:00;;;;;;;0.80;0.40;;;22.60;92.20;;;;;;5016117;28;20511;-76
2022/06/08 09:17:36;;;;;;;2.83;0.50;;;22.60;92.40;;;;;;5021173;28;20040;-76
2022/06/08 09:20:31;;;;;;;3.35;0.40;;;23.00;92.20;;;;;;5024188;28;20029;-76
2022/06/08 09:23:01;;;;;;;1.92;0.60;;;23.10;91.10;;;;;;5014822;28;20100;-76
2022/06/08 09:25:34;;;;;;;1.48;0.50;;;23.00;91.20;;;;;;5023780;28;20506;-76
2022/06/08 09:28:01;;;;;;;11.07;0.60;;;22.90;91.40;;;;;;5024080;28;20139;-76
2022/06/08 09:30:29;;;;;;;1.00;0.40;;;22.90;91.70;;;;;;5023934;28;20060;-76
2022/06/08 09:32:59;;;;;;;1.85;0.50;;;23.20;91.80;;;;;;5018902;28;20033;-76
2022/06/08 09:35:33;;;;;;;2.80;0.55;;;23.60;91.40;;;;;;5022635;28;20041;-77
2022/06/08 09:38:12;;;;;;;2.33;0.40;;;23.60;92.10;;;;;;5021806;28;20080;-76
2022/06/08 09:40:47;;;;;;;1.70;0.70;;;23.70;91.80;;;;;;5021862;28;20029;-76
2022/06/08 09:43:39;;;;;;;3.10;0.75;;;23.80;90.70;;;;;;5023994;28;20045;-76
2022/06/08 09:53:03;;;;;;;3.60;1.05;;;24.00;89.80;;;;;;5019340;28;20404;-77
2022/06/08 09:55:54;;;;;;;0.98;0.40;;;24.00;90.50;;;;;;5023722;28;20099;-76
2022/06/08 09:58:20;;;;;;;1.55;0.50;;;24.10;91.00;;;;;;5020762;28;20057;-77
2022/06/08 10:01:01;;;;;;;4.45;0.80;;;24.10;91.40;;;;;;5028251;28;20034;-77
2022/06/08 10:03:56;;;;;;;0.70;0.38;;;24.00;89.40;;;;;;5027616;28;20079;-76
2022/06/08 10:06:30;;;;;;;2.45;0.60;;;24.00;90.30;;;;;;5024957;28;20038;-76
2022/06/08 10:09:15;;;;;;;1.67;0.30;;;24.80;90.00;;;;;;5027311;28;20029;-76
2022/06/08 10:11:46;;;;;;;1.02;0.50;;;24.90;90.10;;;;;;5024878;28;20132;-77
2022/06/08 10:14:43;;;;;;;1.25;0.50;;;24.60;90.30;;;;;;5028212;28;20135;-77
2022/06/08 10:17:20;;;;;;;2.58;0.60;;;24.90;89.30;;;;;;5026456;28;20483;-76
2022/06/08 10:20:26;;;;;;;1.45;0.60;;;24.70;88.10;;;;;;5027398;28;20060;-77
2022/06/08 10:22:59;;;;;;;1.25;0.30;;;24.80;87.10;;;;;;5023236;28;20034;-76
2022/06/08 10:25:41;;;;;;;1.17;0.50;;;24.60;86.00;;;;;;5018418;28;20063;-77
2022/06/08 10:28:22;;;;;;;4.80;0.90;;;25.00;88.20;;;;;;5027117;28;20349;-76
2022/06/08 10:31:21;;;;;;;1.27;0.47;;;25.10;89.50;;;;;;5027633;28;20083;-76
2022/06/08 10:34:19;;;;;;;1.20;0.50;;;25.40;86.80;;;;;;5020091;28;20049;-77
2022/06/08 10:36:52;;;;;;;1.13;0.40;;;25.70;89.60;;;;;;5024770;28;20120;-77
2022/06/08 10:39:18;;;;;;;0.73;0.30;;;25.10;87.50;;;;;;5021644;28;20096;-77
2022/06/08 10:44:50;;;;;;;2.20;0.40;;;25.10;87.10;;;;;;5026658;28;20096;-77
2022/06/08 10:47:25;;;;;;;2.50;0.60;;;25.60;90.00;;;;;;5024919;28;20041;-77
2022/06/08 10:50:10;;;;;;;1.77;0.52;;;25.80;87.00;;;;;;5026677;28;20758;-76
2022/06/08 10:52:41;;;;;;;1.38;0.40;;;25.70;86.80;;;;;;5020073;28;20125;-77
2022/06/08 10:55:18;;;;;;;1.52;0.52;;;25.90;87.90;;;;;;5024968;28;20026;-77
2022/06/08 10:58:01;;;;;;;0.57;0.30;;;26.10;88.80;;;;;;5021302;28;20068;-77
2022/06/08 11:00:51;;;;;;;1.50;0.40;;;26.20;89.10;;;;;;5026966;28;20029;-76
2022/06/08 11:03:48;;;;;;;0.57;0.30;;;26.50;87.30;;;;;;5027286;28;20033;-77
2022/06/08 11:06:45;;;;;;;1.40;0.57;;;26.20;87.60;;;;;;5026942;28;20083;-76
2022/06/08 11:09:40;;;;;;;0.75;0.30;;;26.30;87.90;;;;;;5011620;28;20052;-77
2022/06/08 11:12:12;;;;;;;2.22;0.43;;;25.80;86.10;;;;;;5017878;28;20638;-76
2022/06/08 11:14:44;;;;;;;2.50;0.63;;;25.70;88.10;;;;;;5027169;28;20041;-76
2022/06/08 11:17:21;;;;;;;1.23;0.40;;;25.30;86.80;;;;;;5028400;28;20021;-76
2022/06/08 11:19:49;;;;;;;1.38;0.52;;;25.80;89.40;;;;;;5029134;28;20586;-76
2022/06/08 11:22:29;;;;;;;0.98;0.40;;;25.70;87.90;;;;;;5026849;28;20549;-77
2022/06/08 11:25:00;;;;;;;3.40;0.40;;;26.10;86.40;;;;;;5025757;28;20032;-76
2022/06/08 11:27:34;;;;;;;1.83;0.50;;;26.50;88.10;;;;;;5023201;28;20099;-76
2022/06/08 11:30:01;;;;;;;1.05;0.43;;;27.10;85.00;;;;;;5018851;28;20065;-77
2022/06/08 11:32:41;;;;;;;0.52;0.22;;;26.80;81.30;;;;;;5020408;28;20104;-77
2022/06/08 11:35:32;;;;;;;1.25;0.40;;;26.80;84.20;;;;;;5021393;28;20034;-76
2022/06/08 11:38:18;;;;;;;1.45;0.30;;;27.10;83.20;;;;;;5006527;28;20092;-75
2022/06/08 11:40:45;;;;;;;0.50;0.20;;;26.80;82.90;;;;;;5024813;28;20550;-75
2022/06/08 11:43:13;;;;;;;1.42;0.40;;;27.30;83.80;;;;;;5022947;28;20044;-76
2022/06/08 11:45:45;;;;;;;1.15;0.35;;;27.10;83.10;;;;;;5015199;28;20037;-76
2022/06/08 11:48:29;;;;;;;6.05;0.55;;;27.20;83.80;;;;;;5013513;28;20060;-76
2022/06/08 11:51:03;;;;;;;0.45;0.20;;;27.30;85.30;;;;;;5017524;28;20031;-76
2022/06/08 11:53:36;;;;;;;1.75;0.50;;;27.60;85.30;;;;;;5017351;28;20033;-73
2022/06/08 11:56:29;;;;;;;1.15;0.52;;;27.40;84.20;;;;;;5016487;28;20033;-73
2022/06/08 11:58:58;;;;;;;5.00;1.13;;;27.20;84.30;;;;;;5020592;28;20591;-75
2022/06/08 12:01:27;;;;;;;5.88;0.60;;;27.00;85.10;;;;;;5015320;28;20458;-76
2022/06/08 12:04:00;;;;;;;2.13;0.73;;;27.00;85.00;;;;;;5018421;28;20037;-74
2022/06/08 12:06:37;;;;;;;3.95;0.70;;;27.40;86.50;;;;;;5021938;28;20080;-74
2022/06/08 12:09:14;;;;;;;2.13;0.68;;;27.50;85.20;;;;;;5018064;28;20104;-77
2022/06/08 12:11:48;;;;;;;0.68;0.50;;;27.50;85.20;;;;;;5018050;28;20123;-75
2022/06/08 12:14:26;;;;;;;1.92;0.70;;;27.40;84.70;;;;;;5025145;28;20026;-75
2022/06/08 12:16:54;;;;;;;1.38;0.47;;;27.30;84.50;;;;;;5017983;28;20622;-75
2022/06/08 12:19:22;;;;;;;2.22;0.57;;;27.20;84.10;;;;;;5022620;28;20116;-75
2022/06/08 12:21:50;;;;;;;1.50;0.57;;;27.10;84.00;;;;;;5011906;28;20064;-76
2022/06/08 12:24:21;;;;;;;3.40;1.05;;;27.20;86.10;;;;;;5018214;28;20045;-76
2022/06/08 12:26:58;;;;;;;1.48;0.73;;;27.30;87.10;;;;;;5026129;28;20148;-77
2022/06/08 12:29:25;;;;;;;1.98;0.57;;;27.60;85.90;;;;;;5016064;28;20025;-76
2022/06/08 12:32:34;;;;;;;2.80;0.55;;;27.60;85.90;;;;;;5016301;28;20361;-77
2022/06/08 12:35:24;;;;;;;1.75;0.70;;;27.50;86.50;;;;;;5014173;28;20029;-77
2022/06/08 12:38:10;;;;;;;2.92;1.13;;;27.50;85.70;;;;;;5018389;28;20036;-76
2022/06/08 12:40:36;;;;;;;1.58;0.70;;;27.40;86.40;;;;;;5021496;28;20037;-77
2022/06/08 12:43:08;;;;;;;1.42;0.60;;;27.30;86.60;;;;;;5022955;28;20102;-76
2022/06/08 12:45:38;;;;;;;2.53;0.60;;;27.60;84.30;;;;;;5022227;28;20052;-77
2022/06/08 12:48:24;;;;;;;2.72;0.70;;;27.70;84.80;;;;;;5015658;28;20076;-76
2022/06/08 12:50:51;;;;;;;0.88;0.43;;;27.60;84.50;;;;;;5024117;28;20041;-76
2022/06/08 12:53:18;;;;;;;1.60;0.80;;;27.70;83.50;;;;;;5025347;28;20037;-77
2022/06/08 12:55:44;;;;;;;2.38;0.60;;;27.40;84.50;;;;;;5023906;28;20032;-76
2022/06/08 12:58:10;;;;;;;2.17;0.40;;;27.60;85.20;;;;;;5019191;28;20044;-76
2022/06/08 13:00:37;;;;;;;2.60;0.75;;;27.60;85.90;;;;;;5019057;28;20480;-76
2022/06/08 13:03:25;;;;;;;4.70;1.15;;;27.80;85.60;;;;;;5015103;28;20030;-76
2022/06/08 13:05:52;;;;;;;5.07;0.63;;;27.70;84.80;;;;;;5017119;28;20083;-77
2022/06/08 13:08:23;;;;;;;0.43;0.38;;;27.10;82.00;;;;;;5016718;28;20095;-76
2022/06/08 13:10:51;;;;;;;2.78;0.63;;;27.50;84.10;;;;;;5012145;28;20129;-77
2022/06/08 13:13:23;;;;;;;1.20;0.55;;;27.50;83.50;;;;;;5017201;28;20095;-76
2022/06/08 13:15:50;;;;;;;4.45;0.65;;;27.50;84.60;;;;;;5020984;28;20061;-76
2022/06/08 13:18:23;;;;;;;3.08;0.80;;;27.40;84.00;;;;;;5019058;28;20622;-76
2022/06/08 13:20:51;;;;;;;2.60;0.65;;;27.10;84.30;;;;;;5026804;28;20131;-77
2022/06/08 13:23:17;;;;;;;2.15;0.80;;;27.00;84.90;;;;;;5020182;28;20056;-77
2022/06/08 13:25:46;;;;;;;2.88;0.68;;;27.10;84.10;;;;;;5026442;28;20037;-77
2022/06/08 13:28:21;;;;;;;2.20;0.63;;;27.00;85.20;;;;;;5025421;28;20084;-76
2022/06/08 13:30:50;;;;;;;4.72;0.98;;;27.00;82.70;;;;;;5014318;28;20053;-76